Sunday, June 17, 2018, 10:08 PM EDT
Back to Local

KRME, Griffiss Airfield

Location: Rome, NY, United States Lat: 43.233
Local Time: 10:08 PM EDT ( 2:08 GMT) Lon: -75.4
Time Zone: US/Eastern Elev: 505 ft

Show me the last for .
Show Decoded

2018-06-17 21:53 METAR KRME 180153Z AUTO 13003KT 10SM CLR 21/18 A3000 RMK AO2 SLP154 T02110178 $
                 =
2018-06-17 20:53 METAR KRME 180053Z 11003KT 10SM CLR 24/18 A2999 RMK AO2 SLP153 T02390178 $ =
2018-06-17 19:53 METAR KRME 172353Z 05004KT 10SM CLR 26/19 A3000 RMK AO2 SLP156 T02560189 10306
                 20256 56015 $ =
2018-06-17 18:53 METAR KRME 172253Z 00000KT 10SM CLR 29/16 A3002 RMK AO2 SLP161 T02890156 $ =
2018-06-17 17:53 METAR KRME 172153Z 12004KT 10SM CLR 31/16 A3003 RMK AO2 SLP164 T03060156 $ =
2018-06-17 16:53 METAR KRME 172053Z 31005KT 10SM CLR 29/14 A3005 RMK AO2 SLP171 T02890144 58008 $
                 =
2018-06-17 15:53 METAR KRME 171953Z 24004KT 10SM CLR 30/13 A3006 RMK AO2 SLP174 T03000133 $ =
2018-06-17 14:53 METAR KRME 171853Z 00000KT 10SM CLR 29/13 A3007 RMK AO2 SLP177 T02940128 $ =
2018-06-17 13:53 METAR KRME 171753Z VRB03KT 10SM CLR 29/12 A3007 RMK AO2 SLP179 T02890122 10294
                 20167 58010 $ =
2018-06-17 12:53 METAR KRME 171653Z 19005KT 10SM CLR 28/12 A3009 RMK AO2 SLP185 T02830122 $ =
2018-06-17 11:53 METAR KRME 171553Z VRB04KT 10SM CLR 27/12 A3009 RMK AO2 SLP187 T02720117 $ =
2018-06-17 10:53 METAR KRME 171453Z 00000KT 10SM CLR 26/12 A3010 RMK AO2 SLP189 T02560122 58007 $
                 =
2018-06-17 09:53 METAR KRME 171353Z 15005KT 10SM CLR 23/13 A3011 RMK AO2 SLP194 T02280133 $ =
2018-06-17 08:53 METAR KRME 171253Z 00000KT 10SM CLR 20/13 A3014 RMK AO2 SLP201 T02000128 $ =
2018-06-17 07:53 METAR KRME 171153Z 00000KT 10SM CLR 17/12 A3012 RMK AO2 SLP197 T01670117 10167
                 20106 53018 $ =
2018-06-17 06:53 METAR KRME 171053Z 11003KT 10SM CLR 13/11 A3010 RMK AO2 SLP190 T01280106 $ =
2018-06-17 05:53 METAR KRME 170953Z AUTO 12003KT 10SM CLR 11/10 A3008 RMK AO2 SLP183 T01110100 $
                 =
2018-06-17 04:53 METAR KRME 170853Z AUTO 12004KT 10SM CLR 11/09 A3007 RMK AO2 SLP180 T01110094
                 51004 $ =
2018-06-17 03:53 METAR KRME 170753Z AUTO 12005KT 10SM CLR 12/10 A3007 RMK AO2 SLP179 T01170100 $
                 =
2018-06-17 02:53 METAR KRME 170653Z AUTO 00000KT 10SM CLR 11/11 A3007 RMK AO2 SLP180 T01110106 $
                 =
2018-06-17 01:53 METAR KRME 170553Z AUTO 02003KT 10SM CLR 12/11 A3006 RMK AO2 SLP176 T01170106
                 10244 20117 51003 $ =
2018-06-17 00:53 METAR KRME 170453Z AUTO 14003KT 10SM CLR 13/11 A3005 RMK AO2 SLP174 T01330111
                 402670083 $ =
2018-06-16 23:53 METAR KRME 170353Z AUTO 00000KT 10SM CLR 14/12 A3006 RMK AO2 SLP177 T01440117 $
                 =
2018-06-16 22:53 METAR KRME 170253Z AUTO 00000KT 10SM CLR 16/12 A3005 RMK AO2 SLP172 T01560122
                 51013 $ =

Support USWX by starting your Amazon purchase here.